Time;durP1;ratioP1;P1;durP2;ratioP2;P2;SDS_P1;SDS_P2;PMS_P1;PMS_P2;Temp;Humidity;BMP_temperature;BMP_pressure;BME280_temperature;BME280_humidity;BME280_pressure;Samples;Min_cycle;Max_cycle;Signal;HPM_P1;HPM_P2
2021/10/07 00:02:06;;;;;;;0.10;0.10;;;;;;;;;;5045703;28;20248;-74
2021/10/07 00:04:32;;;;;;;0.10;0.10;;;;;;;;;;5059524;28;20209;-73
2021/10/07 00:06:59;;;;;;;0.10;0.10;;;;;;;;;;5045519;28;20292;-72
2021/10/07 00:09:25;;;;;;;0.10;0.10;;;;;;;;;;5057878;28;20200;-74
2021/10/07 00:11:52;;;;;;;0.10;0.10;;;;;;;;;;5065052;28;20492;-73
2021/10/07 00:14:18;;;;;;;0.10;0.10;;;;;;;;;;5065026;28;20239;-74
2021/10/07 00:16:45;;;;;;;0.10;0.10;;;;;;;;;;5065322;28;20243;-74
2021/10/07 00:19:12;;;;;;;0.10;0.10;;;;;;;;;;5055608;28;20228;-74
2021/10/07 00:21:39;;;;;;;0.10;0.10;;;;;;;;;;5060482;28;20502;-73
2021/10/07 00:24:09;;;;;;;0.10;0.10;;;;;;;;;;5065087;28;20204;-73
2021/10/07 00:26:35;;;;;;;0.10;0.10;;;;;;;;;;5050973;28;20205;-73
2021/10/07 00:29:07;;;;;;;0.10;0.10;;;;;;;;;;5053293;28;20217;-74
2021/10/07 00:31:36;;;;;;;0.10;0.10;;;;;;;;;;5045001;28;20203;-73
2021/10/07 00:34:13;;;;;;;0.10;0.10;;;;;;;;;;5045219;28;20508;-74
2021/10/07 00:36:55;;;;;;;0.10;0.10;;;;;;;;;;5045028;28;20208;-74
2021/10/07 00:39:20;;;;;;;0.10;0.10;;;;;;;;;;5045024;28;20217;-74
2021/10/07 00:41:47;;;;;;;0.10;0.10;;;;;;;;;;5044823;28;20206;-75
2021/10/07 00:44:13;;;;;;;0.10;0.10;;;;;;;;;;5044608;28;20398;-74
2021/10/07 00:46:46;;;;;;;0.10;0.10;;;;;;;;;;5058122;28;20458;-73
2021/10/07 00:49:12;;;;;;;0.10;0.10;;;;;;;;;;5064441;28;20393;-73
2021/10/07 00:51:38;;;;;;;0.10;0.10;;;;;;;;;;5044523;28;20204;-73
2021/10/07 00:54:06;;;;;;;0.10;0.10;;;;;;;;;;5044250;28;20205;-73
2021/10/07 00:56:33;;;;;;;0.10;0.10;;;;;;;;;;5044495;28;20528;-74
2021/10/07 00:59:01;;;;;;;0.10;0.10;;;;;;;;;;5044171;28;20420;-74
2021/10/07 01:01:27;;;;;;;0.10;0.10;;;;;;;;;;5061750;28;20200;-73
2021/10/07 01:03:53;;;;;;;0.10;0.10;;;;;;;;;;5064437;28;20409;-74
2021/10/07 01:06:20;;;;;;;0.10;0.10;;;;;;;;;;5063956;28;20230;-74
2021/10/07 01:08:46;;;;;;;0.10;0.10;;;;;;;;;;5057084;28;20202;-73
2021/10/07 01:11:14;;;;;;;1.07;1.07;;;;;;;;;;5044135;28;20240;-74
2021/10/07 01:13:41;;;;;;;0.10;0.10;;;;;;;;;;5058149;28;20237;-72
2021/10/07 01:16:08;;;;;;;0.10;0.10;;;;;;;;;;5055693;28;20213;-73
2021/10/07 01:18:34;;;;;;;0.10;0.10;;;;;;;;;;5063758;28;20240;-73
2021/10/07 01:21:02;;;;;;;0.07;0.07;;;;;;;;;;5063527;28;20230;-73
2021/10/07 01:23:28;;;;;;;0.10;0.10;;;;;;;;;;5063771;28;20507;-73
2021/10/07 01:25:54;;;;;;;0.10;0.10;;;;;;;;;;5055237;28;20201;-72
2021/10/07 01:28:21;;;;;;;0.10;0.10;;;;;;;;;;5058206;28;20210;-72
2021/10/07 01:30:47;;;;;;;0.10;0.10;;;;;;;;;;5059408;28;20207;-73
2021/10/07 01:33:13;;;;;;;0.10;0.10;;;;;;;;;;5063403;28;20241;-73
2021/10/07 01:35:39;;;;;;;0.10;0.10;;;;;;;;;;5062834;28;20201;-71
2021/10/07 01:38:07;;;;;;;0.10;0.10;;;;;;;;;;5050245;28;20229;-73
2021/10/07 01:40:33;;;;;;;0.10;0.10;;;;;;;;;;5057468;28;20597;-74
2021/10/07 01:42:59;;;;;;;0.10;0.10;;;;;;;;;;5043814;28;20204;-72
2021/10/07 01:45:26;;;;;;;0.10;0.10;;;;;;;;;;5053750;28;20204;-74
2021/10/07 01:47:52;;;;;;;0.10;0.10;;;;;;;;;;5061202;28;20215;-74
2021/10/07 01:50:18;;;;;;;0.10;0.10;;;;;;;;;;5043551;28;20426;-72
2021/10/07 01:52:45;;;;;;;0.10;0.10;;;;;;;;;;5057844;28;20506;-72
2021/10/07 01:55:13;;;;;;;0.10;0.10;;;;;;;;;;5057001;28;20208;-72
2021/10/07 01:57:40;;;;;;;0.10;0.10;;;;;;;;;;5043163;28;20228;-73
2021/10/07 02:00:07;;;;;;;0.10;0.10;;;;;;;;;;5062016;28;20577;-73
2021/10/07 02:02:33;;;;;;;0.10;0.10;;;;;;;;;;5057303;28;20215;-72
2021/10/07 02:04:59;;;;;;;0.10;0.10;;;;;;;;;;5063308;28;20453;-72
2021/10/07 02:07:25;;;;;;;0.10;0.10;;;;;;;;;;5062945;28;20223;-72
2021/10/07 02:09:52;;;;;;;0.10;0.10;;;;;;;;;;5052936;28;20205;-74
2021/10/07 02:12:19;;;;;;;0.10;0.10;;;;;;;;;;5051765;28;20206;-73
2021/10/07 02:14:45;;;;;;;0.10;0.10;;;;;;;;;;5063092;28;20258;-73
2021/10/07 02:17:12;;;;;;;0.10;0.10;;;;;;;;;;5062969;28;20456;-73
2021/10/07 02:19:38;;;;;;;0.20;0.20;;;;;;;;;;5062865;28;20600;-72
2021/10/07 02:22:05;;;;;;;0.10;0.10;;;;;;;;;;5062852;28;20266;-72
2021/10/07 02:24:31;;;;;;;0.10;0.10;;;;;;;;;;5063127;28;20239;-72
2021/10/07 02:26:57;;;;;;;0.10;0.10;;;;;;;;;;5062838;28;20541;-72
2021/10/07 02:29:25;;;;;;;0.10;0.10;;;;;;;;;;5062836;28;20200;-73
2021/10/07 02:31:51;;;;;;;0.10;0.10;;;;;;;;;;5062483;28;20208;-72
2021/10/07 02:34:17;;;;;;;0.10;0.10;;;;;;;;;;5062816;28;20261;-72
2021/10/07 02:36:43;;;;;;;0.10;0.10;;;;;;;;;;5062449;28;20206;-73
2021/10/07 02:39:09;;;;;;;0.10;0.10;;;;;;;;;;5062601;28;20227;-72
2021/10/07 02:41:36;;;;;;;0.10;0.10;;;;;;;;;;5062602;28;20268;-73
2021/10/07 02:44:03;;;;;;;0.10;0.10;;;;;;;;;;5062702;28;20196;-72
2021/10/07 02:46:31;;;;;;;0.10;0.10;;;;;;;;;;5053331;28;20215;-73
2021/10/07 02:48:57;;;;;;;0.10;0.10;;;;;;;;;;5058395;28;20208;-72
2021/10/07 02:51:23;;;;;;;0.10;0.10;;;;;;;;;;5062540;28;20377;-72
2021/10/07 02:53:49;;;;;;;0.10;0.10;;;;;;;;;;5062574;28;20436;-72
2021/10/07 02:56:16;;;;;;;0.10;0.10;;;;;;;;;;5062301;28;20273;-72
2021/10/07 02:58:42;;;;;;;0.10;0.10;;;;;;;;;;5057081;28;20212;-73
2021/10/07 03:01:08;;;;;;;0.10;0.10;;;;;;;;;;5045227;28;20228;-73
2021/10/07 03:03:36;;;;;;;0.47;0.47;;;;;;;;;;5057388;28;20330;-71
2021/10/07 03:06:02;;;;;;;0.10;0.10;;;;;;;;;;5061870;28;20227;-72
2021/10/07 03:08:28;;;;;;;0.10;0.10;;;;;;;;;;5062242;28;20208;-73
2021/10/07 03:10:55;;;;;;;0.10;0.10;;;;;;;;;;5049117;28;20247;-72
2021/10/07 03:13:21;;;;;;;0.10;0.10;;;;;;;;;;5056432;28;20209;-74
2021/10/07 03:15:48;;;;;;;0.10;0.10;;;;;;;;;;5053946;28;20211;-72
2021/10/07 03:18:14;;;;;;;0.10;0.10;;;;;;;;;;5062212;28;20204;-74
2021/10/07 03:20:41;;;;;;;0.10;0.10;;;;;;;;;;5062001;28;20231;-73
2021/10/07 03:23:08;;;;;;;0.10;0.10;;;;;;;;;;5064187;28;20276;-73
2021/10/07 03:25:34;;;;;;;0.10;0.10;;;;;;;;;;5065535;28;20202;-72
2021/10/07 03:28:00;;;;;;;0.13;0.13;;;;;;;;;;5066031;28;20248;-69
2021/10/07 03:30:26;;;;;;;0.10;0.10;;;;;;;;;;5065305;28;20203;-72
2021/10/07 03:32:53;;;;;;;0.10;0.10;;;;;;;;;;5058555;28;20206;-73
2021/10/07 03:35:19;;;;;;;0.10;0.10;;;;;;;;;;5055322;28;20203;-71
2021/10/07 03:37:46;;;;;;;0.10;0.10;;;;;;;;;;5048194;28;20201;-74
2021/10/07 03:40:13;;;;;;;0.10;0.10;;;;;;;;;;5051015;28;20236;-73
2021/10/07 03:42:39;;;;;;;0.10;0.10;;;;;;;;;;5059908;28;20211;-73
2021/10/07 03:45:06;;;;;;;0.10;0.10;;;;;;;;;;5062056;28;20238;-73
2021/10/07 03:47:33;;;;;;;0.10;0.10;;;;;;;;;;5057312;28;20249;-73
2021/10/07 03:49:59;;;;;;;0.10;0.10;;;;;;;;;;5055014;28;20233;-73
2021/10/07 03:52:25;;;;;;;0.13;0.13;;;;;;;;;;5057517;28;20391;-71
2021/10/07 03:54:53;;;;;;;0.10;0.10;;;;;;;;;;5053567;28;20520;-73
2021/10/07 03:57:22;;;;;;;0.10;0.10;;;;;;;;;;5051402;28;20254;-71
2021/10/07 03:59:48;;;;;;;0.10;0.10;;;;;;;;;;5054714;28;20282;-73
2021/10/07 04:02:14;;;;;;;0.20;0.20;;;;;;;;;;5061604;28;20204;-72
2021/10/07 04:04:40;;;;;;;0.10;0.10;;;;;;;;;;5056062;28;20432;-71
2021/10/07 04:07:08;;;;;;;0.10;0.10;;;;;;;;;;5062028;28;20232;-72
2021/10/07 04:09:34;;;;;;;0.10;0.10;;;;;;;;;;5065287;28;20204;-73
2021/10/07 04:12:04;;;;;;;0.10;0.10;;;;;;;;;;5065113;28;20200;-74
2021/10/07 04:14:31;;;;;;;0.10;0.10;;;;;;;;;;5065228;28;20230;-72
2021/10/07 04:16:57;;;;;;;0.10;0.10;;;;;;;;;;5064976;28;20222;-73
2021/10/07 04:19:23;;;;;;;0.10;0.10;;;;;;;;;;5065157;28;20224;-73
2021/10/07 04:21:49;;;;;;;0.10;0.10;;;;;;;;;;5051089;28;20258;-74
2021/10/07 04:24:17;;;;;;;0.10;0.10;;;;;;;;;;5065278;28;20267;-73
2021/10/07 04:26:43;;;;;;;0.10;0.10;;;;;;;;;;5065163;28;20204;-74
2021/10/07 04:29:11;;;;;;;0.10;0.10;;;;;;;;;;5065177;28;20208;-73
2021/10/07 04:31:38;;;;;;;0.10;0.10;;;;;;;;;;5064744;28;20200;-74
2021/10/07 04:34:05;;;;;;;0.10;0.10;;;;;;;;;;5064567;28;20239;-73
2021/10/07 04:36:31;;;;;;;0.10;0.10;;;;;;;;;;5064620;28;20196;-74
2021/10/07 04:38:58;;;;;;;0.10;0.10;;;;;;;;;;5065058;28;20204;-73
2021/10/07 04:41:24;;;;;;;0.10;0.10;;;;;;;;;;5052188;28;20232;-73
2021/10/07 04:43:50;;;;;;;0.10;0.10;;;;;;;;;;5050936;28;20216;-75
2021/10/07 04:46:21;;;;;;;0.10;0.10;;;;;;;;;;5060562;28;20243;-75
2021/10/07 04:48:47;;;;;;;0.10;0.10;;;;;;;;;;5055522;28;20200;-74
2021/10/07 04:51:13;;;;;;;0.10;0.10;;;;;;;;;;5064716;28;20479;-73
2021/10/07 04:53:39;;;;;;;0.10;0.10;;;;;;;;;;5064470;28;20202;-73
2021/10/07 04:56:06;;;;;;;0.10;0.10;;;;;;;;;;5050509;28;20209;-73
2021/10/07 04:58:32;;;;;;;0.10;0.10;;;;;;;;;;5057809;28;20204;-73
2021/10/07 05:00:58;;;;;;;0.10;0.10;;;;;;;;;;5044259;28;20523;-73
2021/10/07 05:03:29;;;;;;;0.10;0.10;;;;;;;;;;5063181;28;20246;-73
2021/10/07 05:05:55;;;;;;;0.10;0.10;;;;;;;;;;5052561;28;20229;-72
2021/10/07 05:08:21;;;;;;;0.10;0.10;;;;;;;;;;5043926;28;20205;-74
2021/10/07 05:10:47;;;;;;;0.10;0.10;;;;;;;;;;5044099;28;20209;-73
2021/10/07 05:13:14;;;;;;;0.10;0.10;;;;;;;;;;5062675;28;20204;-73
2021/10/07 05:15:40;;;;;;;0.10;0.10;;;;;;;;;;5059665;28;20273;-73
2021/10/07 05:18:06;;;;;;;0.10;0.10;;;;;;;;;;5060909;28;20211;-73
2021/10/07 05:20:34;;;;;;;0.10;0.10;;;;;;;;;;5055227;28;20224;-73
2021/10/07 05:23:01;;;;;;;0.10;0.10;;;;;;;;;;5043944;28;20209;-73
2021/10/07 05:25:27;;;;;;;0.10;0.10;;;;;;;;;;5050907;28;20437;-72
2021/10/07 05:27:53;;;;;;;0.10;0.10;;;;;;;;;;5064077;28;20258;-75
2021/10/07 05:30:19;;;;;;;0.10;0.10;;;;;;;;;;5058628;28;20211;-73
2021/10/07 05:32:48;;;;;;;0.10;0.10;;;;;;;;;;5043620;28;20207;-73
2021/10/07 05:35:15;;;;;;;0.10;0.10;;;;;;;;;;5057662;28;20204;-73
2021/10/07 05:37:42;;;;;;;0.10;0.10;;;;;;;;;;5043757;28;20493;-73
2021/10/07 05:40:09;;;;;;;0.10;0.10;;;;;;;;;;5059279;28;20221;-73
2021/10/07 05:42:35;;;;;;;0.10;0.10;;;;;;;;;;5055662;28;20251;-74
2021/10/07 05:45:02;;;;;;;0.10;0.10;;;;;;;;;;5055109;28;20213;-69
2021/10/07 05:47:29;;;;;;;0.10;0.10;;;;;;;;;;5049821;28;20349;-72
2021/10/07 05:49:55;;;;;;;0.10;0.10;;;;;;;;;;5051050;28;20204;-74
2021/10/07 05:52:21;;;;;;;0.10;0.10;;;;;;;;;;5057505;28;20257;-73
2021/10/07 05:54:49;;;;;;;0.10;0.10;;;;;;;;;;5043541;28;20279;-74
2021/10/07 05:57:15;;;;;;;0.10;0.10;;;;;;;;;;5045698;28;20271;-73
2021/10/07 05:59:41;;;;;;;0.10;0.10;;;;;;;;;;5054593;28;20250;-73
2021/10/07 06:02:07;;;;;;;0.10;0.10;;;;;;;;;;5058164;28;20277;-73
2021/10/07 06:04:34;;;;;;;0.10;0.10;;;;;;;;;;5063363;28;20253;-74
2021/10/07 06:07:00;;;;;;;0.20;0.20;;;;;;;;;;5059545;28;20247;-73
2021/10/07 06:09:26;;;;;;;0.10;0.10;;;;;;;;;;5057038;28;20259;-72
2021/10/07 06:11:54;;;;;;;0.10;0.10;;;;;;;;;;5049837;28;20239;-73
2021/10/07 06:14:20;;;;;;;0.10;0.10;;;;;;;;;;5060129;28;20208;-73
2021/10/07 06:16:47;;;;;;;0.10;0.10;;;;;;;;;;5062600;28;20269;-73
2021/10/07 06:19:16;;;;;;;0.10;0.10;;;;;;;;;;5062960;28;20251;-73
2021/10/07 06:21:42;;;;;;;0.10;0.10;;;;;;;;;;5049809;28;20216;-70
2021/10/07 06:24:09;;;;;;;0.10;0.10;;;;;;;;;;5056099;28;20211;-71
2021/10/07 06:26:35;;;;;;;0.10;0.10;;;;;;;;;;5056912;28;20218;-73
2021/10/07 06:29:02;;;;;;;0.20;0.20;;;;;;;;;;5048361;28;20209;-74
2021/10/07 06:31:29;;;;;;;0.10;0.10;;;;;;;;;;5049578;28;20385;-72
2021/10/07 06:33:55;;;;;;;0.10;0.10;;;;;;;;;;5062652;28;20253;-75
2021/10/07 06:36:21;;;;;;;0.10;0.10;;;;;;;;;;5057797;28;20276;-73
2021/10/07 06:38:47;;;;;;;0.10;0.10;;;;;;;;;;5053991;28;20204;-73
2021/10/07 06:41:14;;;;;;;0.10;0.10;;;;;;;;;;5062628;28;20383;-73
2021/10/07 06:43:40;;;;;;;0.10;0.10;;;;;;;;;;5053447;28;20483;-73
2021/10/07 06:46:08;;;;;;;0.10;0.10;;;;;;;;;;5058212;28;20383;-73
2021/10/07 06:48:34;;;;;;;0.10;0.10;;;;;;;;;;5062718;28;20207;-72
2021/10/07 06:51:01;;;;;;;0.10;0.10;;;;;;;;;;5062574;28;20224;-73
2021/10/07 06:53:28;;;;;;;0.10;0.10;;;;;;;;;;5048552;28;20522;-73
2021/10/07 06:55:54;;;;;;;0.10;0.10;;;;;;;;;;5062296;28;20208;-74
2021/10/07 06:58:20;;;;;;;0.10;0.10;;;;;;;;;;5057900;28;20211;-74
2021/10/07 07:00:47;;;;;;;0.10;0.10;;;;;;;;;;5062554;28;20278;-72
2021/10/07 07:03:15;;;;;;;0.10;0.10;;;;;;;;;;5062832;28;20393;-74
2021/10/07 07:05:41;;;;;;;0.10;0.10;;;;;;;;;;5066479;28;20508;-74
2021/10/07 07:08:07;;;;;;;0.10;0.10;;;;;;;;;;5066410;28;20430;-74
2021/10/07 07:10:33;;;;;;;0.10;0.10;;;;;;;;;;5062463;28;20208;-73
2021/10/07 07:13:04;;;;;;;0.10;0.10;;;;;;;;;;5066550;28;20248;-74
2021/10/07 07:15:30;;;;;;;0.10;0.10;;;;;;;;;;5065944;28;20208;-74
2021/10/07 07:17:56;;;;;;;0.10;0.10;;;;;;;;;;5051982;28;20315;-72
2021/10/07 07:20:24;;;;;;;0.10;0.10;;;;;;;;;;5066318;28;20216;-74
2021/10/07 07:22:51;;;;;;;0.10;0.10;;;;;;;;;;5066180;28;20266;-73
2021/10/07 07:25:17;;;;;;;0.10;0.10;;;;;;;;;;5066074;28;20211;-75
2021/10/07 07:27:43;;;;;;;0.10;0.10;;;;;;;;;;5065937;28;20208;-73
2021/10/07 07:30:10;;;;;;;0.10;0.10;;;;;;;;;;5066059;28;20391;-73
2021/10/07 07:32:36;;;;;;;0.10;0.10;;;;;;;;;;5055822;28;20204;-73
2021/10/07 07:35:03;;;;;;;0.10;0.10;;;;;;;;;;5061641;28;20253;-74
2021/10/07 07:37:30;;;;;;;0.10;0.10;;;;;;;;;;5065999;28;20250;-74
2021/10/07 07:39:57;;;;;;;0.10;0.10;;;;;;;;;;5065799;28;20439;-73
2021/10/07 07:42:24;;;;;;;0.10;0.10;;;;;;;;;;5065994;28;20421;-74
2021/10/07 07:44:51;;;;;;;0.10;0.10;;;;;;;;;;5065715;28;20212;-73
2021/10/07 07:47:21;;;;;;;0.10;0.10;;;;;;;;;;5065934;28;20255;-73
2021/10/07 07:49:47;;;;;;;0.10;0.10;;;;;;;;;;5065723;28;20254;-72
2021/10/07 07:52:13;;;;;;;0.10;0.10;;;;;;;;;;5065648;28;20192;-74
2021/10/07 07:54:41;;;;;;;0.10;0.10;;;;;;;;;;5065878;28;20205;-73
2021/10/07 07:57:07;;;;;;;0.03;0.03;;;;;;;;;;5065332;28;20217;-73
2021/10/07 07:59:34;;;;;;;0.00;0.00;;;;;;;;;;5065812;28;20200;-73
2021/10/07 08:02:00;;;;;;;0.00;0.00;;;;;;;;;;5065583;28;20252;-72
2021/10/07 08:04:26;;;;;;;0.10;0.10;;;;;;;;;;5065229;28;20210;-73
2021/10/07 08:06:53;;;;;;;0.00;0.00;;;;;;;;;;5065285;28;20227;-72
2021/10/07 08:09:19;;;;;;;0.10;0.10;;;;;;;;;;5060702;28;20429;-72
2021/10/07 08:11:47;;;;;;;0.00;0.00;;;;;;;;;;5065247;28;20192;-73
2021/10/07 08:14:13;;;;;;;0.10;0.10;;;;;;;;;;5065448;28;20205;-73
2021/10/07 08:16:39;;;;;;;0.05;0.05;;;;;;;;;;5065337;28;20385;-74
2021/10/07 08:19:06;;;;;;;0.10;0.10;;;;;;;;;;5061282;28;20226;-73
2021/10/07 08:21:32;;;;;;;0.00;0.00;;;;;;;;;;5050115;28;20263;-72
2021/10/07 08:24:04;;;;;;;0.10;0.10;;;;;;;;;;5064990;28;20207;-71
2021/10/07 08:26:30;;;;;;;0.10;0.10;;;;;;;;;;5051057;28;20235;-74
2021/10/07 08:28:58;;;;;;;0.10;0.10;;;;;;;;;;5065192;28;20226;-74
2021/10/07 08:31:24;;;;;;;0.03;0.03;;;;;;;;;;5065049;28;20278;-75
2021/10/07 08:33:51;;;;;;;0.10;0.10;;;;;;;;;;5065154;28;20208;-74
2021/10/07 08:36:17;;;;;;;0.00;0.00;;;;;;;;;;5050884;28;20272;-73
2021/10/07 08:38:44;;;;;;;0.00;0.00;;;;;;;;;;5064942;28;20205;-74
2021/10/07 08:41:12;;;;;;;0.00;0.00;;;;;;;;;;5058944;28;20203;-75
2021/10/07 08:43:40;;;;;;;0.00;0.00;;;;;;;;;;5049250;28;20205;-74
2021/10/07 08:46:10;;;;;;;0.10;0.10;;;;;;;;;;5058911;28;20209;-73
2021/10/07 08:48:37;;;;;;;0.00;0.00;;;;;;;;;;5064082;28;20206;-73
2021/10/07 08:51:03;;;;;;;0.05;0.05;;;;;;;;;;5064659;28;20409;-73
2021/10/07 08:53:30;;;;;;;0.00;0.00;;;;;;;;;;5050905;28;20215;-72
2021/10/07 08:55:56;;;;;;;0.00;0.00;;;;;;;;;;5064569;28;20211;-74
2021/10/07 08:58:22;;;;;;;0.00;0.00;;;;;;;;;;5064473;28;20206;-73
2021/10/07 09:00:48;;;;;;;0.00;0.00;;;;;;;;;;5064443;28;20327;-74
2021/10/07 09:03:20;;;;;;;0.10;0.10;;;;;;;;;;5061036;28;20431;-74
2021/10/07 09:05:46;;;;;;;0.00;0.00;;;;;;;;;;5060971;28;20253;-75
2021/10/07 09:08:14;;;;;;;0.00;0.00;;;;;;;;;;5064468;28;20516;-76
2021/10/07 09:10:43;;;;;;;0.00;0.00;;;;;;;;;;5064522;28;20501;-74
2021/10/07 09:13:11;;;;;;;0.00;0.00;;;;;;;;;;5064424;28;20200;-74
2021/10/07 09:15:40;;;;;;;0.10;0.10;;;;;;;;;;5064366;28;20393;-73
2021/10/07 09:18:09;;;;;;;0.00;0.00;;;;;;;;;;5064432;28;20204;-73
2021/10/07 09:20:38;;;;;;;0.10;0.10;;;;;;;;;;5064118;28;20317;-73
2021/10/07 09:23:05;;;;;;;0.00;0.00;;;;;;;;;;5063963;28;20273;-74
2021/10/07 09:25:31;;;;;;;0.00;0.00;;;;;;;;;;5060991;28;20204;-74
2021/10/07 09:28:02;;;;;;;0.00;0.00;;;;;;;;;;5063652;28;20211;-74
2021/10/07 09:30:29;;;;;;;0.00;0.00;;;;;;;;;;5061922;28;20219;-74
2021/10/07 09:33:00;;;;;;;0.00;0.00;;;;;;;;;;5064108;28;20554;-73
2021/10/07 09:35:26;;;;;;;0.00;0.00;;;;;;;;;;5063827;28;20243;-73
2021/10/07 09:37:56;;;;;;;0.00;0.00;;;;;;;;;;5063409;28;20247;-74
2021/10/07 09:40:25;;;;;;;0.00;0.00;;;;;;;;;;5063600;28;20271;-74
2021/10/07 09:42:52;;;;;;;0.00;0.00;;;;;;;;;;5061315;28;20495;-74
2021/10/07 09:45:20;;;;;;;0.10;0.10;;;;;;;;;;5061258;28;20212;-73
2021/10/07 09:47:48;;;;;;;0.10;0.10;;;;;;;;;;5063345;28;20219;-73
2021/10/07 09:50:19;;;;;;;0.10;0.10;;;;;;;;;;5063143;28;20200;-74
2021/10/07 09:52:47;;;;;;;0.00;0.00;;;;;;;;;;5063166;28;20267;-73
2021/10/07 09:55:16;;;;;;;0.00;0.00;;;;;;;;;;5063086;28;20215;-73
2021/10/07 09:58:03;;;;;;;0.00;0.00;;;;;;;;;;5061708;28;20223;-74
2021/10/07 10:00:31;;;;;;;0.00;0.00;;;;;;;;;;5056132;28;20208;-74
2021/10/07 10:02:58;;;;;;;0.00;0.00;;;;;;;;;;5061212;28;20220;-74
2021/10/07 10:05:25;;;;;;;0.10;0.10;;;;;;;;;;5063032;28;20438;-75
2021/10/07 10:07:51;;;;;;;0.00;0.00;;;;;;;;;;5062878;28;20262;-74
2021/10/07 10:10:19;;;;;;;0.00;0.00;;;;;;;;;;5052612;28;20200;-74
2021/10/07 10:12:46;;;;;;;0.05;0.05;;;;;;;;;;5057823;28;20208;-73
2021/10/07 10:15:13;;;;;;;0.00;0.00;;;;;;;;;;5063008;28;20238;-65
2021/10/07 10:17:39;;;;;;;0.08;0.08;;;;;;;;;;5055602;28;20540;-65
2021/10/07 10:20:07;;;;;;;0.00;0.00;;;;;;;;;;5062841;28;20242;-64
2021/10/07 10:22:34;;;;;;;0.00;0.00;;;;;;;;;;5059173;28;20228;-64
2021/10/07 10:25:01;;;;;;;0.10;0.10;;;;;;;;;;5061640;28;20395;-71
2021/10/07 10:27:45;;;;;;;0.00;0.00;;;;;;;;;;5061742;28;20427;-72
2021/10/07 10:30:28;;;;;;;0.00;0.00;;;;;;;;;;5050941;28;20456;-72
2021/10/07 10:32:55;;;;;;;0.00;0.00;;;;;;;;;;5044942;28;20209;-72
2021/10/07 10:35:38;;;;;;;0.00;0.00;;;;;;;;;;5051947;28;20200;-72
2021/10/07 10:38:06;;;;;;;0.00;0.00;;;;;;;;;;5054757;28;20204;-70
2021/10/07 10:40:32;;;;;;;0.00;0.00;;;;;;;;;;5062606;28;20230;-70
2021/10/07 10:43:17;;;;;;;0.00;0.00;;;;;;;;;;5062161;28;20228;-73
2021/10/07 10:45:47;;;;;;;0.00;0.00;;;;;;;;;;5062661;28;20207;-72
2021/10/07 10:48:13;;;;;;;0.00;0.00;;;;;;;;;;5062645;28;20211;-72
2021/10/07 10:50:39;;;;;;;0.00;0.00;;;;;;;;;;5062103;28;20254;-71
2021/10/07 10:53:21;;;;;;;0.00;0.00;;;;;;;;;;5061616;28;20391;-72
2021/10/07 10:55:50;;;;;;;0.00;0.00;;;;;;;;;;5061568;28;20196;-73
2021/10/07 10:58:17;;;;;;;0.00;0.00;;;;;;;;;;5062632;28;20200;-73
2021/10/07 11:00:43;;;;;;;0.03;0.03;;;;;;;;;;5062080;28;20215;-73
2021/10/07 11:03:18;;;;;;;0.00;0.00;;;;;;;;;;5062591;28;20231;-72
2021/10/07 11:05:55;;;;;;;0.00;0.00;;;;;;;;;;5062026;28;20456;-72
2021/10/07 11:08:23;;;;;;;0.00;0.00;;;;;;;;;;5062317;28;20525;-72
2021/10/07 11:10:50;;;;;;;0.03;0.03;;;;;;;;;;5062300;28;20449;-71
2021/10/07 11:13:17;;;;;;;0.00;0.00;;;;;;;;;;5058335;28;20208;-71
2021/10/07 11:15:46;;;;;;;0.00;0.00;;;;;;;;;;5062564;28;20553;-69
2021/10/07 11:18:13;;;;;;;0.00;0.00;;;;;;;;;;5062742;28;20246;-73
2021/10/07 11:20:41;;;;;;;0.00;0.00;;;;;;;;;;5052873;28;20211;-72
2021/10/07 11:23:08;;;;;;;0.00;0.00;;;;;;;;;;5051512;28;20228;-73
2021/10/07 11:25:35;;;;;;;0.00;0.00;;;;;;;;;;5045905;28;20213;-72
2021/10/07 11:28:02;;;;;;;0.00;0.00;;;;;;;;;;5059970;28;20224;-71
2021/10/07 11:30:29;;;;;;;0.00;0.00;;;;;;;;;;5062483;28;20212;-73
2021/10/07 11:32:58;;;;;;;0.00;0.00;;;;;;;;;;5062274;28;20412;-71
2021/10/07 11:35:25;;;;;;;0.00;0.00;;;;;;;;;;5054022;28;20208;-71
2021/10/07 11:38:00;;;;;;;0.00;0.00;;;;;;;;;;5049943;28;20491;-70
2021/10/07 11:40:28;;;;;;;0.00;0.00;;;;;;;;;;5060778;28;20253;-72
2021/10/07 11:42:56;;;;;;;0.00;0.00;;;;;;;;;;5061896;28;20231;-72
2021/10/07 11:45:23;;;;;;;0.00;0.00;;;;;;;;;;5059983;28;20397;-71
2021/10/07 11:47:51;;;;;;;0.00;0.00;;;;;;;;;;5056336;28;20216;-73
2021/10/07 11:50:18;;;;;;;0.00;0.00;;;;;;;;;;5061156;28;20200;-70
2021/10/07 11:52:44;;;;;;;0.00;0.00;;;;;;;;;;5061667;28;20207;-71
2021/10/07 11:55:13;;;;;;;0.00;0.00;;;;;;;;;;5057682;28;20206;-70
2021/10/07 11:57:46;;;;;;;0.00;0.00;;;;;;;;;;5061873;28;20204;-70
2021/10/07 12:00:12;;;;;;;0.00;0.00;;;;;;;;;;5054772;28;20550;-72
2021/10/07 12:02:39;;;;;;;0.00;0.00;;;;;;;;;;5055868;28;20296;-71
2021/10/07 12:05:18;;;;;;;0.00;0.00;;;;;;;;;;5055024;28;20383;-70
2021/10/07 12:08:01;;;;;;;0.00;0.00;;;;;;;;;;5052405;28;20255;-71
2021/10/07 12:10:39;;;;;;;0.00;0.00;;;;;;;;;;5065566;28;20222;-72
2021/10/07 12:13:06;;;;;;;0.00;0.00;;;;;;;;;;5063684;28;20355;-70
2021/10/07 12:15:32;;;;;;;0.00;0.00;;;;;;;;;;5054437;28;20211;-70
2021/10/07 12:17:59;;;;;;;0.00;0.00;;;;;;;;;;5052870;28;20212;-70
2021/10/07 12:20:25;;;;;;;0.10;0.10;;;;;;;;;;5057355;28;20254;-71
2021/10/07 12:22:51;;;;;;;0.00;0.00;;;;;;;;;;5064597;28;20296;-71
2021/10/07 12:25:18;;;;;;;0.10;0.10;;;;;;;;;;5065109;28;20204;-70
2021/10/07 12:27:46;;;;;;;0.00;0.00;;;;;;;;;;5063892;28;20212;-69
2021/10/07 12:30:14;;;;;;;0.00;0.00;;;;;;;;;;5050855;28;20212;-69
2021/10/07 12:32:41;;;;;;;0.00;0.00;;;;;;;;;;5064858;28;20208;-69
2021/10/07 12:35:09;;;;;;;0.10;0.10;;;;;;;;;;5051220;28;20518;-69
2021/10/07 12:37:39;;;;;;;0.00;0.00;;;;;;;;;;5063603;28;20215;-70
2021/10/07 12:40:06;;;;;;;0.08;0.08;;;;;;;;;;5064631;28;20427;-69
2021/10/07 12:42:33;;;;;;;0.08;0.08;;;;;;;;;;5064811;28;20225;-70
2021/10/07 12:45:02;;;;;;;0.00;0.00;;;;;;;;;;5064934;28;20428;-70
2021/10/07 12:47:29;;;;;;;0.00;0.00;;;;;;;;;;5064309;28;20382;-70
2021/10/07 12:49:56;;;;;;;0.00;0.00;;;;;;;;;;5063885;28;20207;-70
2021/10/07 12:52:24;;;;;;;0.00;0.00;;;;;;;;;;5058425;28;20215;-70
2021/10/07 12:54:51;;;;;;;0.00;0.00;;;;;;;;;;5057858;28;20207;-70
2021/10/07 12:57:36;;;;;;;0.00;0.00;;;;;;;;;;5060127;28;20369;-70
2021/10/07 13:00:05;;;;;;;0.00;0.00;;;;;;;;;;5058859;28;20206;-70
2021/10/07 13:02:32;;;;;;;0.00;0.00;;;;;;;;;;5058384;28;20554;-71
2021/10/07 13:05:11;;;;;;;0.10;0.10;;;;;;;;;;5062653;28;20204;-71
2021/10/07 13:07:37;;;;;;;0.00;0.00;;;;;;;;;;5061120;28;20371;-69
2021/10/07 13:10:04;;;;;;;0.00;0.00;;;;;;;;;;5061144;28;20203;-70
2021/10/07 13:12:30;;;;;;;0.05;0.05;;;;;;;;;;5063597;28;20208;-69
2021/10/07 13:14:56;;;;;;;0.00;0.00;;;;;;;;;;5063986;28;20205;-70
2021/10/07 13:17:24;;;;;;;0.10;0.10;;;;;;;;;;5064007;28;20222;-70
2021/10/07 13:19:50;;;;;;;0.08;0.08;;;;;;;;;;5059842;28;20269;-71
2021/10/07 13:22:16;;;;;;;0.00;0.00;;;;;;;;;;5060626;28;20250;-71
2021/10/07 13:24:43;;;;;;;0.00;0.00;;;;;;;;;;5051829;28;20374;-71
2021/10/07 13:27:10;;;;;;;0.00;0.00;;;;;;;;;;5047673;28;20382;-71
2021/10/07 13:29:37;;;;;;;0.00;0.00;;;;;;;;;;5056534;28;20426;-71
2021/10/07 13:32:03;;;;;;;0.00;0.00;;;;;;;;;;5063643;28;20200;-71
2021/10/07 13:34:31;;;;;;;0.00;0.00;;;;;;;;;;5063787;28;20305;-72
2021/10/07 13:36:58;;;;;;;0.00;0.00;;;;;;;;;;5049973;28;20204;-71
2021/10/07 13:39:24;;;;;;;0.00;0.00;;;;;;;;;;5063709;28;20505;-71
2021/10/07 13:41:51;;;;;;;0.00;0.00;;;;;;;;;;5062734;28;20225;-71
2021/10/07 13:44:19;;;;;;;0.00;0.00;;;;;;;;;;5063109;28;20510;-70
2021/10/07 13:46:45;;;;;;;0.00;0.00;;;;;;;;;;5061897;28;20214;-69
2021/10/07 13:49:12;;;;;;;0.00;0.00;;;;;;;;;;5057383;28;20210;-70
2021/10/07 13:51:39;;;;;;;0.00;0.00;;;;;;;;;;5059606;28;20419;-69
2021/10/07 13:54:05;;;;;;;0.10;0.10;;;;;;;;;;5063447;28;20207;-71
2021/10/07 13:56:32;;;;;;;0.00;0.00;;;;;;;;;;5053574;28;20463;-73
2021/10/07 13:58:58;;;;;;;0.00;0.00;;;;;;;;;;5059540;28;20499;-71
2021/10/07 14:01:24;;;;;;;0.00;0.00;;;;;;;;;;5054334;28;20247;-71
2021/10/07 14:03:50;;;;;;;0.05;0.05;;;;;;;;;;5057659;28;20245;-70
2021/10/07 14:06:18;;;;;;;0.00;0.00;;;;;;;;;;5061640;28;20227;-71
2021/10/07 14:08:45;;;;;;;0.03;0.03;;;;;;;;;;5063091;28;20391;-70
2021/10/07 14:11:12;;;;;;;0.10;0.10;;;;;;;;;;5062865;28;20207;-69
2021/10/07 14:13:38;;;;;;;0.00;0.00;;;;;;;;;;5062750;28;20203;-69
2021/10/07 14:16:05;;;;;;;0.00;0.00;;;;;;;;;;5062136;28;20208;-69
2021/10/07 14:18:32;;;;;;;0.00;0.00;;;;;;;;;;5049899;28;20373;-71
2021/10/07 14:20:58;;;;;;;0.00;0.00;;;;;;;;;;5062852;28;20215;-69
2021/10/07 14:23:25;;;;;;;0.00;0.00;;;;;;;;;;5049030;28;20231;-70
2021/10/07 14:25:54;;;;;;;0.00;0.00;;;;;;;;;;5051894;28;20222;-69
2021/10/07 14:28:21;;;;;;;0.00;0.00;;;;;;;;;;5057093;28;20224;-69
2021/10/07 14:30:48;;;;;;;0.10;0.10;;;;;;;;;;5047668;28;20202;-70
2021/10/07 14:33:15;;;;;;;0.00;0.00;;;;;;;;;;5062100;28;20206;-70
2021/10/07 14:35:41;;;;;;;0.00;0.00;;;;;;;;;;5058701;28;20207;-69
2021/10/07 14:38:07;;;;;;;0.00;0.00;;;;;;;;;;5267999;22;20214;-68
2021/10/07 14:40:34;;;;;;;0.10;0.10;;;;;;;;;;5044047;28;20227;-70
2021/10/07 14:43:01;;;;;;;0.00;0.00;;;;;;;;;;5037350;28;20208;-70
2021/10/07 14:45:29;;;;;;;0.00;0.00;;;;;;;;;;5038633;28;20408;-69